sensor_id;sensor_type;location;lat;lon;timestamp;P1;durP1;ratioP1;P2;durP2;ratioP2
41480;SDS011;27217;51.220;5.308;2022-09-30T00:01:46;11.65;;;7.22;;
41480;SDS011;27217;51.220;5.308;2022-09-30T00:04:15;13.77;;;6.53;;
41480;SDS011;27217;51.220;5.308;2022-09-30T00:06:51;12.05;;;7.38;;
41480;SDS011;27217;51.220;5.308;2022-09-30T00:09:18;13.85;;;7.22;;
41480;SDS011;27217;51.220;5.308;2022-09-30T00:11:45;14.05;;;6.90;;
41480;SDS011;27217;51.220;5.308;2022-09-30T00:14:14;19.77;;;6.32;;
41480;SDS011;27217;51.220;5.308;2022-09-30T00:16:42;10.32;;;6.82;;
41480;SDS011;27217;51.220;5.308;2022-09-30T00:19:08;14.95;;;6.43;;
41480;SDS011;27217;51.220;5.308;2022-09-30T00:21:34;11.40;;;6.50;;
41480;SDS011;27217;51.220;5.308;2022-09-30T00:24:00;23.70;;;7.00;;
41480;SDS011;27217;51.220;5.308;2022-09-30T00:26:27;21.40;;;8.55;;
41480;SDS011;27217;51.220;5.308;2022-09-30T00:28:54;18.63;;;11.13;;
41480;SDS011;27217;51.220;5.308;2022-09-30T00:31:23;22.63;;;11.85;;
41480;SDS011;27217;51.220;5.308;2022-09-30T00:34:11;22.55;;;13.75;;
41480;SDS011;27217;51.220;5.308;2022-09-30T00:36:38;26.95;;;14.27;;
41480;SDS011;27217;51.220;5.308;2022-09-30T00:39:18;29.58;;;13.70;;
41480;SDS011;27217;51.220;5.308;2022-09-30T00:41:48;32.10;;;14.30;;
41480;SDS011;27217;51.220;5.308;2022-09-30T00:58:08;16.08;;;9.57;;
41480;SDS011;27217;51.220;5.308;2022-09-30T01:00:36;17.25;;;9.40;;
41480;SDS011;27217;51.220;5.308;2022-09-30T01:03:03;16.85;;;9.93;;
41480;SDS011;27217;51.220;5.308;2022-09-30T01:05:29;19.88;;;9.60;;
41480;SDS011;27217;51.220;5.308;2022-09-30T01:07:58;16.58;;;9.60;;
41480;SDS011;27217;51.220;5.308;2022-09-30T01:10:27;17.67;;;8.85;;
41480;SDS011;27217;51.220;5.308;2022-09-30T01:12:53;23.73;;;9.45;;
41480;SDS011;27217;51.220;5.308;2022-09-30T01:15:22;21.08;;;9.23;;
41480;SDS011;27217;51.220;5.308;2022-09-30T01:18:07;19.70;;;10.63;;
41480;SDS011;27217;51.220;5.308;2022-09-30T01:31:48;19.05;;;9.10;;
41480;SDS011;27217;51.220;5.308;2022-09-30T01:34:36;18.65;;;8.60;;
41480;SDS011;27217;51.220;5.308;2022-09-30T01:37:19;21.73;;;9.00;;
41480;SDS011;27217;51.220;5.308;2022-09-30T01:40:01;18.83;;;9.30;;
41480;SDS011;27217;51.220;5.308;2022-09-30T01:43:11;19.48;;;10.05;;
41480;SDS011;27217;51.220;5.308;2022-09-30T01:45:56;17.42;;;9.45;;
41480;SDS011;27217;51.220;5.308;2022-09-30T01:48:36;21.60;;;12.27;;
41480;SDS011;27217;51.220;5.308;2022-09-30T01:51:42;17.60;;;10.45;;
41480;SDS011;27217;51.220;5.308;2022-09-30T01:54:32;20.08;;;11.05;;
41480;SDS011;27217;51.220;5.308;2022-09-30T01:57:06;21.95;;;13.80;;
41480;SDS011;27217;51.220;5.308;2022-09-30T01:59:45;21.38;;;12.00;;
41480;SDS011;27217;51.220;5.308;2022-09-30T02:02:26;18.27;;;11.68;;
41480;SDS011;27217;51.220;5.308;2022-09-30T02:04:58;20.00;;;11.45;;
41480;SDS011;27217;51.220;5.308;2022-09-30T02:07:36;21.20;;;10.55;;
41480;SDS011;27217;51.220;5.308;2022-09-30T02:13:05;17.40;;;11.32;;
41480;SDS011;27217;51.220;5.308;2022-09-30T02:15:39;22.17;;;12.57;;
41480;SDS011;27217;51.220;5.308;2022-09-30T02:18:25;22.45;;;12.90;;
41480;SDS011;27217;51.220;5.308;2022-09-30T02:21:00;19.10;;;12.32;;
41480;SDS011;27217;51.220;5.308;2022-09-30T02:26:27;21.27;;;12.43;;
41480;SDS011;27217;51.220;5.308;2022-09-30T02:28:54;22.75;;;10.10;;
41480;SDS011;27217;51.220;5.308;2022-09-30T02:31:28;18.85;;;10.77;;
41480;SDS011;27217;51.220;5.308;2022-09-30T02:33:59;15.80;;;10.25;;
41480;SDS011;27217;51.220;5.308;2022-09-30T02:36:30;20.60;;;10.35;;
41480;SDS011;27217;51.220;5.308;2022-09-30T02:39:04;20.40;;;11.45;;
41480;SDS011;27217;51.220;5.308;2022-09-30T02:41:34;22.10;;;12.02;;
41480;SDS011;27217;51.220;5.308;2022-09-30T02:44:08;24.35;;;11.77;;
41480;SDS011;27217;51.220;5.308;2022-09-30T02:49:21;24.48;;;14.90;;
41480;SDS011;27217;51.220;5.308;2022-09-30T03:00:18;21.75;;;12.45;;
41480;SDS011;27217;51.220;5.308;2022-09-30T03:02:43;26.75;;;16.13;;
41480;SDS011;27217;51.220;5.308;2022-09-30T03:05:10;23.35;;;13.77;;
41480;SDS011;27217;51.220;5.308;2022-09-30T03:07:36;23.05;;;15.20;;
41480;SDS011;27217;51.220;5.308;2022-09-30T03:10:13;33.67;;;18.83;;
41480;SDS011;27217;51.220;5.308;2022-09-30T03:40:56;60.58;;;34.08;;
41480;SDS011;27217;51.220;5.308;2022-09-30T03:43:36;51.92;;;29.80;;
41480;SDS011;27217;51.220;5.308;2022-09-30T03:46:23;54.80;;;30.10;;
41480;SDS011;27217;51.220;5.308;2022-09-30T03:49:01;55.38;;;30.08;;
41480;SDS011;27217;51.220;5.308;2022-09-30T03:51:31;51.55;;;31.05;;
41480;SDS011;27217;51.220;5.308;2022-09-30T03:54:05;55.80;;;30.45;;
41480;SDS011;27217;51.220;5.308;2022-09-30T03:56:35;58.70;;;30.15;;
41480;SDS011;27217;51.220;5.308;2022-09-30T03:59:09;61.00;;;31.17;;
41480;SDS011;27217;51.220;5.308;2022-09-30T04:01:36;53.38;;;29.23;;
41480;SDS011;27217;51.220;5.308;2022-09-30T04:04:05;56.83;;;30.00;;
41480;SDS011;27217;51.220;5.308;2022-09-30T04:06:31;59.13;;;30.27;;
41480;SDS011;27217;51.220;5.308;2022-09-30T04:08:57;50.45;;;27.92;;
41480;SDS011;27217;51.220;5.308;2022-09-30T04:11:23;55.40;;;29.58;;
41480;SDS011;27217;51.220;5.308;2022-09-30T04:13:48;46.60;;;27.48;;
41480;SDS011;27217;51.220;5.308;2022-09-30T04:16:14;53.22;;;29.15;;
41480;SDS011;27217;51.220;5.308;2022-09-30T04:18:42;51.03;;;28.00;;
41480;SDS011;27217;51.220;5.308;2022-09-30T04:21:09;46.83;;;27.45;;
41480;SDS011;27217;51.220;5.308;2022-09-30T04:23:38;49.10;;;27.15;;
41480;SDS011;27217;51.220;5.308;2022-09-30T04:26:06;47.53;;;26.15;;
41480;SDS011;27217;51.220;5.308;2022-09-30T04:28:35;43.78;;;25.85;;
41480;SDS011;27217;51.220;5.308;2022-09-30T04:31:01;47.75;;;26.52;;
41480;SDS011;27217;51.220;5.308;2022-09-30T04:33:29;51.88;;;26.52;;
41480;SDS011;27217;51.220;5.308;2022-09-30T04:35:55;47.78;;;26.48;;
41480;SDS011;27217;51.220;5.308;2022-09-30T04:38:24;45.92;;;25.20;;
41480;SDS011;27217;51.220;5.308;2022-09-30T04:40:51;44.65;;;25.33;;
41480;SDS011;27217;51.220;5.308;2022-09-30T04:43:18;47.95;;;26.08;;
41480;SDS011;27217;51.220;5.308;2022-09-30T04:45:46;44.53;;;26.13;;
41480;SDS011;27217;51.220;5.308;2022-09-30T04:48:12;54.88;;;28.08;;
41480;SDS011;27217;51.220;5.308;2022-09-30T04:50:39;50.10;;;27.00;;
41480;SDS011;27217;51.220;5.308;2022-09-30T04:53:06;54.88;;;26.98;;
41480;SDS011;27217;51.220;5.308;2022-09-30T04:55:32;43.60;;;23.92;;
41480;SDS011;27217;51.220;5.308;2022-09-30T04:57:59;41.97;;;24.40;;
41480;SDS011;27217;51.220;5.308;2022-09-30T05:00:24;45.53;;;24.90;;
41480;SDS011;27217;51.220;5.308;2022-09-30T05:02:50;47.20;;;25.50;;
41480;SDS011;27217;51.220;5.308;2022-09-30T05:05:17;50.85;;;25.55;;
41480;SDS011;27217;51.220;5.308;2022-09-30T05:07:43;47.70;;;24.83;;
41480;SDS011;27217;51.220;5.308;2022-09-30T05:10:09;50.80;;;26.67;;
41480;SDS011;27217;51.220;5.308;2022-09-30T05:12:38;64.63;;;25.30;;
41480;SDS011;27217;51.220;5.308;2022-09-30T05:15:09;45.28;;;25.15;;
41480;SDS011;27217;51.220;5.308;2022-09-30T05:17:35;166.18;;;32.38;;
41480;SDS011;27217;51.220;5.308;2022-09-30T05:20:02;68.00;;;25.30;;
41480;SDS011;27217;51.220;5.308;2022-09-30T05:22:29;97.32;;;28.33;;
41480;SDS011;27217;51.220;5.308;2022-09-30T05:24:55;102.18;;;26.73;;
41480;SDS011;27217;51.220;5.308;2022-09-30T05:27:24;58.80;;;26.38;;
41480;SDS011;27217;51.220;5.308;2022-09-30T05:29:50;76.82;;;26.92;;
41480;SDS011;27217;51.220;5.308;2022-09-30T05:32:16;98.72;;;27.30;;
41480;SDS011;27217;51.220;5.308;2022-09-30T05:34:42;90.15;;;30.92;;
41480;SDS011;27217;51.220;5.308;2022-09-30T05:37:08;78.90;;;28.55;;
41480;SDS011;27217;51.220;5.308;2022-09-30T05:39:34;55.25;;;27.20;;
41480;SDS011;27217;51.220;5.308;2022-09-30T05:42:00;59.67;;;29.77;;
41480;SDS011;27217;51.220;5.308;2022-09-30T05:44:26;85.80;;;31.40;;
41480;SDS011;27217;51.220;5.308;2022-09-30T05:46:52;59.80;;;28.55;;
41480;SDS011;27217;51.220;5.308;2022-09-30T05:49:17;67.57;;;27.98;;
41480;SDS011;27217;51.220;5.308;2022-09-30T05:51:44;94.35;;;29.77;;
41480;SDS011;27217;51.220;5.308;2022-09-30T05:54:10;80.13;;;30.58;;
41480;SDS011;27217;51.220;5.308;2022-09-30T05:56:35;71.18;;;30.60;;
41480;SDS011;27217;51.220;5.308;2022-09-30T05:59:05;62.80;;;31.42;;
41480;SDS011;27217;51.220;5.308;2022-09-30T06:01:31;93.60;;;32.45;;
41480;SDS011;27217;51.220;5.308;2022-09-30T06:03:57;74.32;;;31.80;;
41480;SDS011;27217;51.220;5.308;2022-09-30T06:06:24;72.35;;;34.95;;
41480;SDS011;27217;51.220;5.308;2022-09-30T06:08:50;71.40;;;35.15;;
41480;SDS011;27217;51.220;5.308;2022-09-30T06:11:19;67.50;;;34.90;;
41480;SDS011;27217;51.220;5.308;2022-09-30T06:13:47;74.63;;;37.33;;
41480;SDS011;27217;51.220;5.308;2022-09-30T06:16:14;78.95;;;37.28;;
41480;SDS011;27217;51.220;5.308;2022-09-30T06:18:42;75.97;;;37.13;;
41480;SDS011;27217;51.220;5.308;2022-09-30T06:21:10;70.35;;;35.58;;
41480;SDS011;27217;51.220;5.308;2022-09-30T06:23:38;70.50;;;35.45;;
41480;SDS011;27217;51.220;5.308;2022-09-30T06:26:08;66.70;;;33.58;;
41480;SDS011;27217;51.220;5.308;2022-09-30T06:28:35;67.47;;;34.20;;
41480;SDS011;27217;51.220;5.308;2022-09-30T06:31:02;63.70;;;33.33;;
41480;SDS011;27217;51.220;5.308;2022-09-30T06:33:29;57.42;;;31.77;;
41480;SDS011;27217;51.220;5.308;2022-09-30T06:35:56;56.65;;;31.15;;
41480;SDS011;27217;51.220;5.308;2022-09-30T06:38:21;66.50;;;33.03;;
41480;SDS011;27217;51.220;5.308;2022-09-30T06:40:48;60.85;;;32.65;;
41480;SDS011;27217;51.220;5.308;2022-09-30T06:43:17;65.90;;;31.75;;
41480;SDS011;27217;51.220;5.308;2022-09-30T06:45:46;61.65;;;32.55;;
41480;SDS011;27217;51.220;5.308;2022-09-30T06:48:13;68.68;;;34.10;;
41480;SDS011;27217;51.220;5.308;2022-09-30T06:50:40;63.47;;;33.22;;
41480;SDS011;27217;51.220;5.308;2022-09-30T06:53:06;63.55;;;33.83;;
41480;SDS011;27217;51.220;5.308;2022-09-30T06:55:33;64.57;;;34.80;;
41480;SDS011;27217;51.220;5.308;2022-09-30T06:58:03;67.85;;;35.40;;
41480;SDS011;27217;51.220;5.308;2022-09-30T07:00:35;72.13;;;37.20;;
41480;SDS011;27217;51.220;5.308;2022-09-30T07:03:02;81.57;;;39.58;;
41480;SDS011;27217;51.220;5.308;2022-09-30T07:05:30;81.13;;;40.88;;
41480;SDS011;27217;51.220;5.308;2022-09-30T07:07:56;79.75;;;38.92;;
41480;SDS011;27217;51.220;5.308;2022-09-30T07:10:22;82.95;;;40.33;;
41480;SDS011;27217;51.220;5.308;2022-09-30T07:12:50;83.85;;;42.65;;
41480;SDS011;27217;51.220;5.308;2022-09-30T07:15:16;92.93;;;45.20;;
41480;SDS011;27217;51.220;5.308;2022-09-30T07:17:51;102.65;;;46.50;;
41480;SDS011;27217;51.220;5.308;2022-09-30T07:20:17;88.50;;;46.08;;
41480;SDS011;27217;51.220;5.308;2022-09-30T07:22:43;96.07;;;47.42;;
41480;SDS011;27217;51.220;5.308;2022-09-30T07:25:10;87.32;;;43.92;;
41480;SDS011;27217;51.220;5.308;2022-09-30T07:27:36;86.32;;;42.58;;
41480;SDS011;27217;51.220;5.308;2022-09-30T07:30:07;90.10;;;43.92;;
41480;SDS011;27217;51.220;5.308;2022-09-30T07:32:33;83.78;;;40.80;;
41480;SDS011;27217;51.220;5.308;2022-09-30T07:34:59;84.15;;;41.15;;
41480;SDS011;27217;51.220;5.308;2022-09-30T07:37:24;82.50;;;42.75;;
41480;SDS011;27217;51.220;5.308;2022-09-30T07:39:51;86.28;;;42.63;;
41480;SDS011;27217;51.220;5.308;2022-09-30T07:42:17;83.35;;;39.30;;
41480;SDS011;27217;51.220;5.308;2022-09-30T07:44:47;77.13;;;38.70;;
41480;SDS011;27217;51.220;5.308;2022-09-30T07:47:17;83.00;;;39.85;;
41480;SDS011;27217;51.220;5.308;2022-09-30T07:49:46;79.40;;;38.60;;
41480;SDS011;27217;51.220;5.308;2022-09-30T07:52:12;86.28;;;40.63;;
41480;SDS011;27217;51.220;5.308;2022-09-30T07:54:39;84.13;;;40.85;;
41480;SDS011;27217;51.220;5.308;2022-09-30T07:57:06;82.50;;;40.47;;
41480;SDS011;27217;51.220;5.308;2022-09-30T07:59:34;77.10;;;38.15;;
41480;SDS011;27217;51.220;5.308;2022-09-30T08:02:02;75.28;;;36.85;;
41480;SDS011;27217;51.220;5.308;2022-09-30T08:04:28;67.95;;;35.13;;
41480;SDS011;27217;51.220;5.308;2022-09-30T08:06:58;70.68;;;34.78;;
41480;SDS011;27217;51.220;5.308;2022-09-30T08:09:30;66.22;;;34.33;;
41480;SDS011;27217;51.220;5.308;2022-09-30T08:12:00;65.53;;;33.97;;
41480;SDS011;27217;51.220;5.308;2022-09-30T08:14:29;58.17;;;32.28;;
41480;SDS011;27217;51.220;5.308;2022-09-30T08:16:57;57.83;;;31.25;;
41480;SDS011;27217;51.220;5.308;2022-09-30T08:19:25;52.88;;;29.73;;
41480;SDS011;27217;51.220;5.308;2022-09-30T08:21:52;50.67;;;29.10;;
41480;SDS011;27217;51.220;5.308;2022-09-30T08:24:18;53.45;;;29.55;;
41480;SDS011;27217;51.220;5.308;2022-09-30T08:26:45;51.15;;;28.65;;
41480;SDS011;27217;51.220;5.308;2022-09-30T08:29:11;49.90;;;27.70;;
41480;SDS011;27217;51.220;5.308;2022-09-30T08:31:38;55.80;;;28.67;;
41480;SDS011;27217;51.220;5.308;2022-09-30T08:34:05;45.28;;;25.40;;
41480;SDS011;27217;51.220;5.308;2022-09-30T08:36:31;45.63;;;26.10;;
41480;SDS011;27217;51.220;5.308;2022-09-30T08:38:57;45.22;;;25.55;;
41480;SDS011;27217;51.220;5.308;2022-09-30T08:47:13;45.22;;;22.42;;
41480;SDS011;27217;51.220;5.308;2022-09-30T08:55:22;41.97;;;20.63;;
41480;SDS011;27217;51.220;5.308;2022-09-30T08:57:50;32.47;;;18.45;;
41480;SDS011;27217;51.220;5.308;2022-09-30T09:00:17;31.02;;;19.08;;
41480;SDS011;27217;51.220;5.308;2022-09-30T09:11:31;22.50;;;13.98;;
41480;SDS011;27217;51.220;5.308;2022-09-30T09:14:00;22.70;;;12.68;;
41480;SDS011;27217;51.220;5.308;2022-09-30T09:21:54;14.85;;;10.25;;
41480;SDS011;27217;51.220;5.308;2022-09-30T09:24:25;18.55;;;10.73;;
41480;SDS011;27217;51.220;5.308;2022-09-30T09:26:54;17.95;;;9.65;;
41480;SDS011;27217;51.220;5.308;2022-09-30T09:29:24;11.35;;;8.02;;
41480;SDS011;27217;51.220;5.308;2022-09-30T09:31:53;13.68;;;9.52;;
41480;SDS011;27217;51.220;5.308;2022-09-30T09:34:19;19.90;;;10.07;;
41480;SDS011;27217;51.220;5.308;2022-09-30T09:39:45;13.60;;;7.30;;
41480;SDS011;27217;51.220;5.308;2022-09-30T09:42:25;9.32;;;6.30;;
41480;SDS011;27217;51.220;5.308;2022-09-30T09:45:25;10.57;;;6.00;;
41480;SDS011;27217;51.220;5.308;2022-09-30T09:47:58;10.15;;;6.47;;
41480;SDS011;27217;51.220;5.308;2022-09-30T09:50:28;9.95;;;6.88;;
41480;SDS011;27217;51.220;5.308;2022-09-30T09:55:52;7.32;;;5.38;;
41480;SDS011;27217;51.220;5.308;2022-09-30T09:58:23;8.95;;;5.10;;
41480;SDS011;27217;51.220;5.308;2022-09-30T10:00:49;13.40;;;4.95;;
41480;SDS011;27217;51.220;5.308;2022-09-30T10:03:16;16.30;;;6.38;;
41480;SDS011;27217;51.220;5.308;2022-09-30T10:05:58;12.15;;;5.20;;
41480;SDS011;27217;51.220;5.308;2022-09-30T10:08:25;7.35;;;4.05;;
41480;SDS011;27217;51.220;5.308;2022-09-30T10:10:54;6.50;;;4.38;;
41480;SDS011;27217;51.220;5.308;2022-09-30T10:13:26;8.25;;;4.65;;
41480;SDS011;27217;51.220;5.308;2022-09-30T10:16:21;8.88;;;4.53;;
41480;SDS011;27217;51.220;5.308;2022-09-30T10:19:22;7.50;;;3.97;;
41480;SDS011;27217;51.220;5.308;2022-09-30T10:24:32;6.40;;;4.60;;
41480;SDS011;27217;51.220;5.308;2022-09-30T10:27:00;6.55;;;3.90;;
41480;SDS011;27217;51.220;5.308;2022-09-30T10:29:28;7.22;;;4.00;;
41480;SDS011;27217;51.220;5.308;2022-09-30T10:31:56;7.43;;;3.95;;
41480;SDS011;27217;51.220;5.308;2022-09-30T10:34:30;7.88;;;3.63;;
41480;SDS011;27217;51.220;5.308;2022-09-30T10:37:06;7.25;;;4.30;;
41480;SDS011;27217;51.220;5.308;2022-09-30T10:39:35;11.57;;;4.32;;
41480;SDS011;27217;51.220;5.308;2022-09-30T10:44:46;4.93;;;4.00;;
41480;SDS011;27217;51.220;5.308;2022-09-30T10:47:20;6.03;;;4.53;;
41480;SDS011;27217;51.220;5.308;2022-09-30T10:52:52;17.98;;;3.90;;
41480;SDS011;27217;51.220;5.308;2022-09-30T10:57:53;6.97;;;3.85;;
41480;SDS011;27217;51.220;5.308;2022-09-30T11:00:21;5.10;;;3.40;;
41480;SDS011;27217;51.220;5.308;2022-09-30T11:05:43;7.03;;;3.75;;
41480;SDS011;27217;51.220;5.308;2022-09-30T11:08:21;4.50;;;3.03;;
41480;SDS011;27217;51.220;5.308;2022-09-30T11:11:26;6.28;;;3.33;;
41480;SDS011;27217;51.220;5.308;2022-09-30T11:16:46;3.33;;;2.95;;
41480;SDS011;27217;51.220;5.308;2022-09-30T11:19:29;6.90;;;3.58;;
41480;SDS011;27217;51.220;5.308;2022-09-30T11:24:56;21.40;;;3.55;;
41480;SDS011;27217;51.220;5.308;2022-09-30T11:30:15;7.22;;;2.40;;
41480;SDS011;27217;51.220;5.308;2022-09-30T11:38:57;2.58;;;1.92;;
41480;SDS011;27217;51.220;5.308;2022-09-30T11:41:36;8.43;;;2.08;;
41480;SDS011;27217;51.220;5.308;2022-09-30T11:47:17;8.05;;;2.58;;
41480;SDS011;27217;51.220;5.308;2022-09-30T11:52:46;5.40;;;1.75;;
41480;SDS011;27217;51.220;5.308;2022-09-30T11:58:03;10.43;;;2.10;;
41480;SDS011;27217;51.220;5.308;2022-09-30T12:00:42;3.70;;;2.03;;
41480;SDS011;27217;51.220;5.308;2022-09-30T12:03:12;3.97;;;1.15;;
41480;SDS011;27217;51.220;5.308;2022-09-30T12:05:53;2.95;;;1.17;;
41480;SDS011;27217;51.220;5.308;2022-09-30T12:08:25;3.42;;;1.25;;
41480;SDS011;27217;51.220;5.308;2022-09-30T12:11:01;3.63;;;1.45;;
41480;SDS011;27217;51.220;5.308;2022-09-30T12:13:38;5.50;;;1.98;;
41480;SDS011;27217;51.220;5.308;2022-09-30T12:16:09;2.08;;;1.25;;
41480;SDS011;27217;51.220;5.308;2022-09-30T12:18:55;3.35;;;1.27;;
41480;SDS011;27217;51.220;5.308;2022-09-30T12:21:35;2.78;;;1.17;;
41480;SDS011;27217;51.220;5.308;2022-09-30T12:26:39;2.45;;;1.30;;
41480;SDS011;27217;51.220;5.308;2022-09-30T12:29:07;2.42;;;1.33;;
41480;SDS011;27217;51.220;5.308;2022-09-30T12:32:05;2.67;;;1.40;;
41480;SDS011;27217;51.220;5.308;2022-09-30T12:37:57;2.55;;;1.10;;
41480;SDS011;27217;51.220;5.308;2022-09-30T12:48:23;6.68;;;1.63;;
41480;SDS011;27217;51.220;5.308;2022-09-30T12:50:56;3.28;;;1.73;;
41480;SDS011;27217;51.220;5.308;2022-09-30T12:53:32;1.70;;;1.35;;
41480;SDS011;27217;51.220;5.308;2022-09-30T12:56:04;2.90;;;1.20;;
41480;SDS011;27217;51.220;5.308;2022-09-30T12:58:37;2.78;;;1.00;;
41480;SDS011;27217;51.220;5.308;2022-09-30T13:01:13;2.63;;;1.33;;
41480;SDS011;27217;51.220;5.308;2022-09-30T13:03:43;2.13;;;1.05;;
41480;SDS011;27217;51.220;5.308;2022-09-30T13:06:12;1.42;;;1.10;;
41480;SDS011;27217;51.220;5.308;2022-09-30T13:08:40;2.90;;;1.33;;
41480;SDS011;27217;51.220;5.308;2022-09-30T13:14:02;3.50;;;1.00;;
41480;SDS011;27217;51.220;5.308;2022-09-30T13:19:51;3.30;;;1.00;;
41480;SDS011;27217;51.220;5.308;2022-09-30T13:25:09;5.78;;;0.82;;
41480;SDS011;27217;51.220;5.308;2022-09-30T13:35:34;4.53;;;0.90;;
41480;SDS011;27217;51.220;5.308;2022-09-30T13:41:00;2.35;;;0.80;;
41480;SDS011;27217;51.220;5.308;2022-09-30T13:43:49;3.28;;;0.98;;
41480;SDS011;27217;51.220;5.308;2022-09-30T13:46:40;4.85;;;0.80;;
41480;SDS011;27217;51.220;5.308;2022-09-30T13:49:21;2.17;;;0.60;;
41480;SDS011;27217;51.220;5.308;2022-09-30T13:52:05;1.65;;;0.68;;
41480;SDS011;27217;51.220;5.308;2022-09-30T13:54:37;2.95;;;0.73;;
41480;SDS011;27217;51.220;5.308;2022-09-30T13:57:13;3.58;;;0.95;;
41480;SDS011;27217;51.220;5.308;2022-09-30T14:00:03;2.30;;;0.75;;
41480;SDS011;27217;51.220;5.308;2022-09-30T14:08:22;3.90;;;0.70;;
41480;SDS011;27217;51.220;5.308;2022-09-30T14:22:02;6.45;;;0.98;;
41480;SDS011;27217;51.220;5.308;2022-09-30T14:24:35;4.05;;;1.33;;
41480;SDS011;27217;51.220;5.308;2022-09-30T14:32:28;1.98;;;1.10;;
41480;SDS011;27217;51.220;5.308;2022-09-30T14:35:02;3.40;;;1.10;;
41480;SDS011;27217;51.220;5.308;2022-09-30T14:37:47;2.03;;;1.30;;
41480;SDS011;27217;51.220;5.308;2022-09-30T14:40:19;3.03;;;1.27;;
41480;SDS011;27217;51.220;5.308;2022-09-30T14:42:50;2.30;;;1.00;;
41480;SDS011;27217;51.220;5.308;2022-09-30T14:45:18;4.75;;;0.98;;
41480;SDS011;27217;51.220;5.308;2022-09-30T14:47:50;3.85;;;1.30;;
41480;SDS011;27217;51.220;5.308;2022-09-30T14:50:28;2.65;;;1.13;;
41480;SDS011;27217;51.220;5.308;2022-09-30T14:52:59;3.00;;;1.35;;
41480;SDS011;27217;51.220;5.308;2022-09-30T14:55:31;1.42;;;1.10;;
41480;SDS011;27217;51.220;5.308;2022-09-30T15:03:39;2.05;;;1.48;;
41480;SDS011;27217;51.220;5.308;2022-09-30T15:06:15;1.77;;;1.33;;
41480;SDS011;27217;51.220;5.308;2022-09-30T15:08:46;10.05;;;1.58;;
41480;SDS011;27217;51.220;5.308;2022-09-30T15:11:18;2.78;;;1.20;;
41480;SDS011;27217;51.220;5.308;2022-09-30T15:13:46;2.00;;;1.13;;
41480;SDS011;27217;51.220;5.308;2022-09-30T15:16:22;1.60;;;1.20;;
41480;SDS011;27217;51.220;5.308;2022-09-30T15:18:53;2.50;;;1.35;;
41480;SDS011;27217;51.220;5.308;2022-09-30T15:21:19;3.38;;;1.38;;
41480;SDS011;27217;51.220;5.308;2022-09-30T15:23:47;2.15;;;1.10;;
41480;SDS011;27217;51.220;5.308;2022-09-30T15:28:45;3.83;;;1.90;;
41480;SDS011;27217;51.220;5.308;2022-09-30T15:31:22;2.95;;;1.65;;
41480;SDS011;27217;51.220;5.308;2022-09-30T15:34:04;2.58;;;1.55;;
41480;SDS011;27217;51.220;5.308;2022-09-30T15:36:35;2.05;;;1.30;;
41480;SDS011;27217;51.220;5.308;2022-09-30T15:39:02;3.00;;;1.50;;
41480;SDS011;27217;51.220;5.308;2022-09-30T15:41:36;2.58;;;1.30;;
41480;SDS011;27217;51.220;5.308;2022-09-30T15:44:04;1.67;;;0.95;;
41480;SDS011;27217;51.220;5.308;2022-09-30T15:46:40;1.27;;;0.73;;
41480;SDS011;27217;51.220;5.308;2022-09-30T15:54:53;4.88;;;1.20;;
41480;SDS011;27217;51.220;5.308;2022-09-30T16:00:29;2.53;;;1.25;;
41480;SDS011;27217;51.220;5.308;2022-09-30T16:03:17;3.33;;;1.27;;
41480;SDS011;27217;51.220;5.308;2022-09-30T16:05:51;1.45;;;1.10;;
41480;SDS011;27217;51.220;5.308;2022-09-30T16:08:24;2.58;;;1.50;;
41480;SDS011;27217;51.220;5.308;2022-09-30T16:10:55;11.60;;;1.70;;
41480;SDS011;27217;51.220;5.308;2022-09-30T16:13:23;2.80;;;1.27;;
41480;SDS011;27217;51.220;5.308;2022-09-30T16:15:52;6.87;;;1.17;;
41480;SDS011;27217;51.220;5.308;2022-09-30T16:18:21;2.55;;;1.05;;
41480;SDS011;27217;51.220;5.308;2022-09-30T16:21:01;3.42;;;1.00;;
41480;SDS011;27217;51.220;5.308;2022-09-30T16:23:36;2.17;;;1.08;;
41480;SDS011;27217;51.220;5.308;2022-09-30T16:28:41;2.65;;;1.20;;
41480;SDS011;27217;51.220;5.308;2022-09-30T16:31:10;3.42;;;1.35;;
41480;SDS011;27217;51.220;5.308;2022-09-30T16:33:40;4.50;;;1.38;;
41480;SDS011;27217;51.220;5.308;2022-09-30T16:36:08;2.00;;;1.35;;
41480;SDS011;27217;51.220;5.308;2022-09-30T16:38:34;1.65;;;1.20;;
41480;SDS011;27217;51.220;5.308;2022-09-30T16:41:00;1.60;;;1.00;;
41480;SDS011;27217;51.220;5.308;2022-09-30T16:43:27;4.20;;;1.20;;
41480;SDS011;27217;51.220;5.308;2022-09-30T16:45:54;7.40;;;1.90;;
41480;SDS011;27217;51.220;5.308;2022-09-30T16:48:21;2.05;;;1.15;;
41480;SDS011;27217;51.220;5.308;2022-09-30T16:53:18;8.48;;;1.77;;
41480;SDS011;27217;51.220;5.308;2022-09-30T16:55:44;4.65;;;1.40;;
41480;SDS011;27217;51.220;5.308;2022-09-30T16:58:12;6.55;;;1.20;;
41480;SDS011;27217;51.220;5.308;2022-09-30T17:00:39;6.22;;;1.88;;
41480;SDS011;27217;51.220;5.308;2022-09-30T17:03:08;2.80;;;1.33;;
41480;SDS011;27217;51.220;5.308;2022-09-30T17:05:36;2.85;;;1.20;;
41480;SDS011;27217;51.220;5.308;2022-09-30T17:08:05;3.88;;;1.20;;
41480;SDS011;27217;51.220;5.308;2022-09-30T17:10:37;6.07;;;1.42;;
41480;SDS011;27217;51.220;5.308;2022-09-30T17:13:03;4.20;;;1.67;;
41480;SDS011;27217;51.220;5.308;2022-09-30T17:15:30;2.40;;;1.40;;
41480;SDS011;27217;51.220;5.308;2022-09-30T17:17:57;2.90;;;1.10;;
41480;SDS011;27217;51.220;5.308;2022-09-30T17:20:24;3.25;;;1.55;;
41480;SDS011;27217;51.220;5.308;2022-09-30T17:22:50;5.65;;;1.40;;
41480;SDS011;27217;51.220;5.308;2022-09-30T17:25:16;5.25;;;1.50;;
41480;SDS011;27217;51.220;5.308;2022-09-30T17:27:45;2.33;;;1.23;;
41480;SDS011;27217;51.220;5.308;2022-09-30T17:30:15;1.98;;;1.52;;
41480;SDS011;27217;51.220;5.308;2022-09-30T17:32:42;4.32;;;1.80;;
41480;SDS011;27217;51.220;5.308;2022-09-30T17:35:09;3.80;;;1.38;;
41480;SDS011;27217;51.220;5.308;2022-09-30T17:37:36;2.90;;;1.27;;
41480;SDS011;27217;51.220;5.308;2022-09-30T17:40:03;2.42;;;1.40;;
41480;SDS011;27217;51.220;5.308;2022-09-30T17:42:49;2.67;;;1.50;;
41480;SDS011;27217;51.220;5.308;2022-09-30T17:45:35;3.55;;;1.13;;
41480;SDS011;27217;51.220;5.308;2022-09-30T17:48:03;5.53;;;1.40;;
41480;SDS011;27217;51.220;5.308;2022-09-30T17:50:29;2.30;;;1.65;;
41480;SDS011;27217;51.220;5.308;2022-09-30T17:52:55;1.65;;;1.50;;
41480;SDS011;27217;51.220;5.308;2022-09-30T17:55:21;6.25;;;1.80;;
41480;SDS011;27217;51.220;5.308;2022-09-30T17:57:47;7.07;;;2.00;;
41480;SDS011;27217;51.220;5.308;2022-09-30T18:00:14;4.95;;;1.95;;
41480;SDS011;27217;51.220;5.308;2022-09-30T18:02:41;4.57;;;2.08;;
41480;SDS011;27217;51.220;5.308;2022-09-30T18:05:08;3.05;;;1.85;;
41480;SDS011;27217;51.220;5.308;2022-09-30T18:07:38;4.10;;;1.80;;
41480;SDS011;27217;51.220;5.308;2022-09-30T18:10:04;6.10;;;1.98;;
41480;SDS011;27217;51.220;5.308;2022-09-30T18:12:31;3.10;;;1.75;;
41480;SDS011;27217;51.220;5.308;2022-09-30T18:14:58;4.68;;;2.65;;
41480;SDS011;27217;51.220;5.308;2022-09-30T18:17:24;1.95;;;1.73;;
41480;SDS011;27217;51.220;5.308;2022-09-30T18:19:50;4.88;;;1.90;;
41480;SDS011;27217;51.220;5.308;2022-09-30T18:22:16;2.72;;;2.10;;
41480;SDS011;27217;51.220;5.308;2022-09-30T18:24:42;3.47;;;2.30;;
41480;SDS011;27217;51.220;5.308;2022-09-30T18:27:26;5.72;;;2.45;;
41480;SDS011;27217;51.220;5.308;2022-09-30T18:29:53;6.40;;;2.38;;
41480;SDS011;27217;51.220;5.308;2022-09-30T18:32:19;6.50;;;2.58;;